createdAt,value
2019-03-10T00:02:14.979Z,100509.64
2019-03-10T00:04:45.526Z,100495.63
2019-03-10T00:07:16.032Z,100494.66
2019-03-10T00:09:45.540Z,100484.65
2019-03-10T00:12:15.975Z,100489.73
2019-03-10T00:14:45.478Z,100482.78
2019-03-10T00:17:15.558Z,100498.20
2019-03-10T00:19:45.106Z,100490.33
2019-03-10T00:22:14.610Z,100485.77
2019-03-10T00:24:44.239Z,100488.40
2019-03-10T00:27:14.114Z,100480.73
2019-03-10T00:29:43.643Z,100475.70
2019-03-10T00:32:13.309Z,100475.28
2019-03-10T00:34:44.049Z,100480.51
2019-03-10T00:37:13.659Z,100474.44
2019-03-10T00:40:23.903Z,100467.77
2019-03-10T00:43:31.443Z,100462.38
2019-03-10T00:46:39.204Z,100459.30
2019-03-10T00:49:42.732Z,100451.80
2019-03-10T00:52:19.353Z,100448.30
2019-03-10T00:54:48.776Z,100453.97
2019-03-10T00:57:18.285Z,100447.36
2019-03-10T00:59:48.731Z,100441.14
2019-03-10T01:02:19.121Z,100435.98
2019-03-10T01:04:51.795Z,100430.00
2019-03-10T01:07:23.649Z,100426.30
2019-03-10T01:09:53.163Z,100426.44
2019-03-10T01:12:22.908Z,100420.69
2019-03-10T01:14:52.855Z,100418.55
2019-03-10T01:17:22.348Z,100416.52
2019-03-10T01:19:53.811Z,100414.27
2019-03-10T01:22:24.275Z,100405.33
2019-03-10T01:24:54.174Z,100407.05
2019-03-10T01:27:24.772Z,100400.39
2019-03-10T01:29:55.771Z,100394.97
2019-03-10T01:32:35.901Z,100388.48
2019-03-10T01:35:14.575Z,100381.74
2019-03-10T01:37:44.359Z,100379.87
2019-03-10T01:40:24.661Z,100374.70
2019-03-10T01:42:56.137Z,100372.04
2019-03-10T01:45:26.637Z,100369.73
2019-03-10T01:48:01.080Z,100364.93
2019-03-10T01:50:31.462Z,100367.19
2019-03-10T01:53:01.962Z,100363.54
2019-03-10T01:55:31.726Z,100357.38
2019-03-10T01:58:01.432Z,100345.75
2019-03-10T02:00:31.079Z,100338.81
2019-03-10T02:03:01.324Z,100342.31
2019-03-10T02:05:30.813Z,100337.36
2019-03-10T02:08:01.138Z,100332.63
2019-03-10T02:10:30.600Z,100332.33
2019-03-10T02:13:00.015Z,100322.09
2019-03-10T02:15:31.789Z,100305.02
2019-03-10T02:18:03.815Z,100298.75
2019-03-10T02:20:33.432Z,100281.65
2019-03-10T02:23:03.001Z,100290.48
2019-03-10T02:25:32.675Z,100283.30
2019-03-10T02:28:03.086Z,100281.24
2019-03-10T02:30:33.122Z,100272.03
2019-03-10T02:33:02.678Z,100271.61
2019-03-10T02:35:43.856Z,100262.77
2019-03-10T02:38:14.614Z,100254.00
2019-03-10T02:40:44.143Z,100244.78
2019-03-10T02:43:16.454Z,100240.27
2019-03-10T02:45:45.915Z,100224.07
2019-03-10T02:48:15.741Z,100218.95
2019-03-10T02:50:45.503Z,100224.10
2019-03-10T02:53:15.108Z,100217.52
2019-03-10T02:55:47.452Z,100214.23
2019-03-10T02:58:17.431Z,100205.09
2019-03-10T03:00:46.974Z,100205.92
2019-03-10T03:03:17.323Z,100197.20
2019-03-10T03:05:48.605Z,100198.25
2019-03-10T03:08:19.524Z,100201.92
2019-03-10T03:10:49.041Z,100192.70
2019-03-10T03:13:19.035Z,100183.37
2019-03-10T03:15:48.546Z,100177.11
2019-03-10T03:18:18.157Z,100169.55
2019-03-10T03:20:47.627Z,100158.27
2019-03-10T03:23:17.201Z,100161.73
2019-03-10T03:25:46.901Z,100154.57
2019-03-10T03:28:16.522Z,100147.41
2019-03-10T03:30:46.118Z,100149.75
2019-03-10T03:33:15.763Z,100140.82
2019-03-10T03:35:53.936Z,100140.00
2019-03-10T03:38:38.124Z,100132.52
2019-03-10T03:41:13.642Z,100112.64
2019-03-10T03:43:43.263Z,100109.98
2019-03-10T03:46:12.823Z,100100.63
2019-03-10T03:48:42.440Z,100095.19
2019-03-10T03:51:11.957Z,100084.75
2019-03-10T03:53:41.542Z,100078.20
2019-03-10T03:56:11.287Z,100079.72
2019-03-10T03:58:40.825Z,100077.67
2019-03-10T04:01:16.659Z,100079.61
2019-03-10T04:03:46.393Z,100072.95
2019-03-10T04:06:15.901Z,100063.53
2019-03-10T04:08:45.365Z,100061.16
2019-03-10T04:11:14.942Z,100046.52
2019-03-10T04:13:44.822Z,100050.91
2019-03-10T04:16:14.340Z,100050.63
2019-03-10T04:18:43.842Z,100040.61
2019-03-10T04:21:13.258Z,100042.34
2019-03-10T04:23:42.738Z,100037.94
2019-03-10T04:26:12.289Z,100030.86
2019-03-10T04:28:41.639Z,100036.98
2019-03-10T04:31:11.034Z,100027.88
2019-03-10T04:33:40.379Z,100019.36
2019-03-10T04:36:09.804Z,100008.21
2019-03-10T04:38:39.164Z,100004.27
2019-03-10T04:41:08.603Z,100001.81
2019-03-10T04:43:38.172Z,99992.08
2019-03-10T04:46:07.801Z,99984.92
2019-03-10T04:48:37.275Z,99975.46
2019-03-10T04:51:06.735Z,99971.18
2019-03-10T04:53:36.162Z,99965.83
2019-03-10T04:56:16.536Z,99970.31
2019-03-10T04:58:49.477Z,99970.20
2019-03-10T05:01:19.349Z,99967.39
2019-03-10T05:03:48.885Z,99967.06
2019-03-10T05:06:18.281Z,99964.73
2019-03-10T05:08:47.789Z,99954.55
2019-03-10T05:11:17.186Z,99954.87
2019-03-10T05:13:46.620Z,99947.90
2019-03-10T05:16:16.142Z,99944.47
2019-03-10T05:18:45.544Z,99936.09
2019-03-10T05:21:14.963Z,99933.33
2019-03-10T05:23:45.324Z,99921.88
2019-03-10T05:26:16.229Z,99913.68
2019-03-10T05:28:49.095Z,99913.89
2019-03-10T05:31:18.541Z,99907.34
2019-03-10T05:33:47.953Z,99909.06
2019-03-10T05:36:17.539Z,99907.73
2019-03-10T05:38:47.145Z,99898.44
2019-03-10T05:41:16.758Z,99885.87
2019-03-10T05:43:46.387Z,99878.80
2019-03-10T05:46:15.967Z,99865.22
2019-03-10T05:48:45.298Z,99863.06
2019-03-10T05:51:14.761Z,99864.06
2019-03-10T05:53:44.348Z,99854.45
2019-03-10T05:56:13.951Z,99841.15
2019-03-10T05:58:43.452Z,99829.70
2019-03-10T06:01:13.068Z,99822.05
2019-03-10T06:03:42.468Z,99818.17
2019-03-10T06:06:12.009Z,99814.30
2019-03-10T06:08:41.447Z,99806.52
2019-03-10T06:11:10.988Z,99796.81
2019-03-10T06:13:40.768Z,99798.14
2019-03-10T06:16:10.291Z,99793.44
2019-03-10T06:18:39.775Z,99792.01
2019-03-10T06:21:09.406Z,99782.64
2019-03-10T06:23:38.798Z,99775.06
2019-03-10T06:26:08.294Z,99765.44
2019-03-10T06:28:37.643Z,99756.86
2019-03-10T06:31:07.260Z,99753.91
2019-03-10T06:33:36.682Z,99743.98
2019-03-10T06:36:06.157Z,99739.80
2019-03-10T06:38:35.644Z,99731.63
2019-03-10T06:41:05.381Z,99728.86
2019-03-10T06:43:34.823Z,99718.73
2019-03-10T06:46:04.339Z,99714.25
2019-03-10T06:48:33.869Z,99705.06
2019-03-10T06:51:03.369Z,99695.36
2019-03-10T06:53:32.908Z,99693.02
2019-03-10T06:56:02.441Z,99684.33
2019-03-10T06:58:31.982Z,99682.89
2019-03-10T07:01:01.393Z,99679.52
2019-03-10T07:03:30.897Z,99676.45
2019-03-10T07:06:00.367Z,99665.42
2019-03-10T07:08:29.783Z,99657.05
2019-03-10T07:10:59.234Z,99652.56
2019-03-10T07:13:28.719Z,99634.75
2019-03-10T07:15:58.453Z,99630.06
2019-03-10T07:18:27.961Z,99627.27
2019-03-10T07:20:57.877Z,99629.21
2019-03-10T07:23:27.447Z,99628.30
2019-03-10T07:26:06.289Z,99627.36
2019-03-10T07:29:00.662Z,99611.63
2019-03-10T07:32:01.306Z,99610.20
2019-03-10T07:34:55.493Z,99611.09
2019-03-10T07:37:46.620Z,99600.77
2019-03-10T07:40:40.949Z,99597.37
2019-03-10T07:43:41.282Z,99587.84
2019-03-10T07:46:44.680Z,99574.00
2019-03-10T07:49:44.675Z,99558.90
2019-03-10T07:52:31.696Z,99558.20
2019-03-10T07:55:07.947Z,99554.11
2019-03-10T07:57:56.282Z,99547.56
2019-03-10T08:00:59.945Z,99542.06
2019-03-10T08:03:51.283Z,99541.56
2019-03-10T08:06:48.638Z,99527.75
2019-03-10T08:09:36.992Z,99520.02
2019-03-10T08:12:40.549Z,99521.53
2019-03-10T08:15:17.149Z,99520.11
2019-03-10T08:17:52.498Z,99504.22
2019-03-10T08:20:30.508Z,99495.55
2019-03-10T08:23:26.428Z,99490.14
2019-03-10T08:26:16.415Z,99484.27
2019-03-10T08:28:54.197Z,99479.34
2019-03-10T08:31:42.640Z,99477.00
2019-03-10T08:34:32.332Z,99469.93
2019-03-10T08:37:19.117Z,99454.34
2019-03-10T08:40:05.879Z,99449.63
2019-03-10T08:42:41.801Z,99445.78
2019-03-10T08:45:36.175Z,99448.88
2019-03-10T08:48:42.548Z,99436.28
2019-03-10T08:51:31.430Z,99432.67
2019-03-10T08:54:14.372Z,99420.38
2019-03-10T08:57:05.782Z,99419.20
2019-03-10T09:00:00.373Z,99417.39
2019-03-10T09:02:41.169Z,99414.14
2019-03-10T09:05:27.978Z,99403.81
2019-03-10T09:08:07.279Z,99400.88
2019-03-10T09:10:54.087Z,99387.05
2019-03-10T09:13:42.473Z,99390.83
2019-03-10T09:16:39.744Z,99386.70
2019-03-10T09:19:25.529Z,99381.45
2019-03-10T09:22:02.602Z,99372.55
2019-03-10T09:24:49.706Z,99365.10
2019-03-10T09:27:36.124Z,99363.91
2019-03-10T09:30:35.103Z,99365.23
2019-03-10T09:33:23.501Z,99357.06
2019-03-10T09:36:26.968Z,99349.34
2019-03-10T09:39:18.079Z,99342.23
2019-03-10T09:42:06.394Z,99335.70
2019-03-10T09:45:03.921Z,99321.81
2019-03-10T09:47:48.934Z,99321.26
2019-03-10T09:50:40.715Z,99304.62
2019-03-10T09:53:36.492Z,99319.53
2019-03-10T09:56:28.234Z,99299.31
2019-03-10T09:59:19.595Z,99283.63
2019-03-10T10:02:11.107Z,99291.45
2019-03-10T10:05:02.541Z,99265.00
2019-03-10T10:07:47.277Z,99263.66
2019-03-10T10:10:22.251Z,99282.36
2019-03-10T10:13:16.149Z,99253.06
2019-03-10T10:16:01.284Z,99205.75
2019-03-10T10:18:38.416Z,99204.02
2019-03-10T10:21:33.238Z,99213.19
2019-03-10T10:24:27.091Z,99231.63
2019-03-10T10:27:13.899Z,99213.63
2019-03-10T10:29:55.957Z,99221.36
2019-03-10T10:32:45.799Z,99219.45
2019-03-10T10:35:52.983Z,99211.84
2019-03-10T10:38:34.581Z,99205.89
2019-03-10T10:41:26.106Z,99217.88
2019-03-10T10:44:14.720Z,99201.97
2019-03-10T10:47:09.280Z,99190.89
2019-03-10T10:49:49.552Z,99185.77
2019-03-10T10:52:41.259Z,99167.48
2019-03-10T10:55:18.994Z,99163.30
2019-03-10T10:58:05.395Z,99164.08
2019-03-10T11:00:52.907Z,99152.75
2019-03-10T11:03:39.990Z,99145.42
2019-03-10T11:06:34.429Z,99144.03
2019-03-10T11:09:16.008Z,99132.91
2019-03-10T11:12:03.391Z,99132.58
2019-03-10T11:14:54.795Z,99119.45
2019-03-10T11:17:43.503Z,99111.09
2019-03-10T11:20:23.155Z,99104.88
2019-03-10T11:23:02.962Z,99108.06
2019-03-10T11:25:48.845Z,99116.95
2019-03-10T11:28:43.509Z,99102.66
2019-03-10T11:31:32.150Z,99103.13
2019-03-10T11:34:09.969Z,99103.53
2019-03-10T11:36:50.864Z,99091.72
2019-03-10T11:39:57.743Z,99097.05
2019-03-10T11:42:55.135Z,99086.27
2019-03-10T11:45:43.887Z,99083.82
2019-03-10T11:48:35.642Z,99069.77
2019-03-10T11:51:27.181Z,99047.92
2019-03-10T11:54:18.527Z,99046.95
2019-03-10T11:57:13.435Z,99048.19
2019-03-10T11:59:51.704Z,99033.39
2019-03-10T12:02:31.146Z,99022.47
2019-03-10T12:05:08.240Z,99040.08
2019-03-10T12:08:03.003Z,99034.00
2019-03-10T12:10:33.003Z,99021.97
2019-03-10T12:13:02.801Z,99007.32
2019-03-10T12:15:33.089Z,98992.86
2019-03-10T12:18:03.052Z,98989.85
2019-03-10T12:20:33.460Z,98978.34
2019-03-10T12:23:03.361Z,98966.44
2019-03-10T12:25:33.418Z,98964.62
2019-03-10T12:28:03.361Z,98960.79
2019-03-10T12:30:33.307Z,98963.86
2019-03-10T12:33:03.233Z,98950.13
2019-03-10T12:35:34.634Z,98963.92
2019-03-10T12:38:04.918Z,98962.55
2019-03-10T12:40:34.862Z,98948.13
2019-03-10T12:43:04.761Z,98958.52
2019-03-10T12:45:34.474Z,98945.95
2019-03-10T12:48:04.283Z,98935.91
2019-03-10T12:50:34.041Z,98931.88
2019-03-10T12:53:03.869Z,98920.64
2019-03-10T12:55:33.686Z,98919.08
2019-03-10T12:58:03.559Z,98914.09
2019-03-10T13:00:33.559Z,98916.09
2019-03-10T13:03:03.525Z,98914.34
2019-03-10T13:05:33.427Z,98911.27
2019-03-10T13:08:03.378Z,98912.70
2019-03-10T13:10:33.381Z,98917.97
2019-03-10T13:13:03.335Z,98910.63
2019-03-10T13:15:33.178Z,98907.05
2019-03-10T13:18:03.007Z,98902.78
2019-03-10T13:20:34.068Z,98882.92
2019-03-10T13:23:04.113Z,98871.39
2019-03-10T13:25:34.149Z,98859.95
2019-03-10T13:28:03.984Z,98842.89
2019-03-10T13:30:33.849Z,98868.09
2019-03-10T13:33:03.734Z,98860.63
2019-03-10T13:35:33.777Z,98872.36
2019-03-10T13:38:04.229Z,98873.80
2019-03-10T13:40:34.025Z,98861.71
2019-03-10T13:43:03.978Z,98852.25
2019-03-10T13:45:33.792Z,98841.34
2019-03-10T13:48:03.633Z,98830.86
2019-03-10T13:50:33.543Z,98832.09
2019-03-10T13:53:03.520Z,98818.59
2019-03-10T13:55:33.541Z,98825.93
2019-03-10T13:58:03.469Z,98812.87
2019-03-10T14:00:33.425Z,98813.42
2019-03-10T14:03:03.792Z,98816.38
2019-03-10T14:05:34.126Z,98822.86
2019-03-10T14:08:04.085Z,98775.92
2019-03-10T14:10:34.839Z,98817.02
2019-03-10T14:13:04.881Z,98855.70
2019-03-10T14:15:34.791Z,98820.57
2019-03-10T14:18:04.868Z,98853.52
2019-03-10T14:20:34.820Z,98870.81
2019-03-10T14:23:04.898Z,98876.33
2019-03-10T14:25:34.938Z,98903.64
2019-03-10T14:28:04.890Z,98858.50
2019-03-10T14:30:35.125Z,98895.98
2019-03-10T14:33:05.060Z,98907.37
2019-03-10T14:35:35.014Z,98905.83
2019-03-10T14:38:04.964Z,98912.47
2019-03-10T14:40:35.387Z,98919.17
2019-03-10T14:43:05.262Z,98915.37
2019-03-10T14:45:35.219Z,98891.36
2019-03-10T14:48:05.187Z,98939.47
2019-03-10T14:50:35.484Z,98927.78
2019-03-10T14:53:05.490Z,98938.00
2019-03-10T14:55:35.638Z,98938.73
2019-03-10T14:58:05.575Z,98926.33
2019-03-10T15:00:35.629Z,98950.57
2019-03-10T15:03:05.424Z,98947.04
2019-03-10T15:05:35.373Z,98945.23
2019-03-10T15:08:05.318Z,98952.72
2019-03-10T15:10:35.195Z,98949.66
2019-03-10T15:13:06.173Z,98909.76
2019-03-10T15:15:36.155Z,98905.04
2019-03-10T15:18:06.190Z,98936.47
2019-03-10T15:20:36.202Z,98936.05
2019-03-10T15:23:06.088Z,98946.62
2019-03-10T15:25:36.053Z,98892.23
2019-03-10T15:28:06.207Z,98941.75
2019-03-10T15:30:36.204Z,98922.47
2019-03-10T15:33:06.344Z,98909.61
2019-03-10T15:35:36.306Z,98971.05
2019-03-10T15:38:06.225Z,98958.55
2019-03-10T15:40:36.291Z,98950.50
2019-03-10T15:43:09.100Z,98953.36
2019-03-10T15:45:39.083Z,98975.58
2019-03-10T15:48:08.985Z,98992.84
2019-03-10T15:50:39.268Z,99015.66
2019-03-10T15:53:09.270Z,99008.11
2019-03-10T15:55:39.104Z,99030.33
2019-03-10T15:58:09.094Z,99054.41
2019-03-10T16:00:39.096Z,99161.84
2019-03-10T16:03:09.024Z,99187.45
2019-03-10T16:05:38.954Z,99222.35
2019-03-10T16:08:08.819Z,99246.91
2019-03-10T16:10:38.887Z,99307.33
2019-03-10T16:13:08.823Z,99333.67
2019-03-10T16:15:39.777Z,99389.23
2019-03-10T16:18:09.850Z,99428.28
2019-03-10T16:20:39.804Z,99454.23
2019-03-10T16:23:09.769Z,99486.59
2019-03-10T16:25:39.970Z,99544.28
2019-03-10T16:28:09.885Z,99558.64
2019-03-10T16:30:39.879Z,99572.28
2019-03-10T16:33:10.365Z,99610.27
2019-03-10T16:35:41.484Z,99610.59
2019-03-10T16:38:11.504Z,99661.41
2019-03-10T16:40:41.458Z,99663.80
2019-03-10T16:43:11.382Z,99688.40
2019-03-10T16:45:41.344Z,99720.92
2019-03-10T16:48:11.715Z,99751.35
2019-03-10T16:50:41.457Z,99768.54
2019-03-10T16:53:11.468Z,99787.05
2019-03-10T16:55:41.530Z,99813.67
2019-03-10T16:58:11.505Z,99833.37
2019-03-10T17:00:41.608Z,99848.05
2019-03-10T17:03:11.589Z,99864.92
2019-03-10T17:05:41.502Z,99883.31
2019-03-10T17:08:11.550Z,99887.69
2019-03-10T17:10:41.453Z,99912.95
2019-03-10T17:13:11.321Z,99929.97
2019-03-10T17:15:41.290Z,99929.78
2019-03-10T17:18:11.360Z,99952.39
2019-03-10T17:20:41.337Z,99971.14
2019-03-10T17:23:11.278Z,99969.72
2019-03-10T17:25:41.389Z,99988.13
2019-03-10T17:28:11.441Z,99993.84
2019-03-10T17:30:41.272Z,100007.93
2019-03-10T17:33:11.198Z,100008.45
2019-03-10T17:35:41.446Z,100021.55
2019-03-10T17:38:11.462Z,100030.33
2019-03-10T17:40:41.433Z,100036.11
2019-03-10T17:43:11.747Z,100044.37
2019-03-10T17:45:41.789Z,100044.22
2019-03-10T17:48:13.182Z,100069.30
2019-03-10T17:50:43.445Z,100074.56
2019-03-10T17:53:13.552Z,100077.48
2019-03-10T17:55:43.635Z,100081.45
2019-03-10T17:58:13.605Z,100095.20
2019-03-10T18:00:43.614Z,100103.57
2019-03-10T18:03:13.554Z,100102.87
2019-03-10T18:05:43.445Z,100118.80
2019-03-10T18:08:13.588Z,100105.20
2019-03-10T18:10:43.548Z,100128.37
2019-03-10T18:13:13.541Z,100127.03
2019-03-10T18:15:43.398Z,100131.83
2019-03-10T18:18:13.609Z,100138.92
2019-03-10T18:20:43.720Z,100138.27
2019-03-10T18:23:13.800Z,100136.28
2019-03-10T18:25:43.721Z,100142.84
2019-03-10T18:28:13.764Z,100153.05
2019-03-10T18:30:43.683Z,100147.89
2019-03-10T18:33:13.617Z,100144.73
2019-03-10T18:35:43.596Z,100149.31
2019-03-10T18:38:13.810Z,100153.91
2019-03-10T18:40:43.790Z,100155.23
2019-03-10T18:43:13.835Z,100155.02
2019-03-10T18:45:43.799Z,100170.17
2019-03-10T18:48:13.983Z,100171.72
2019-03-10T18:50:43.909Z,100175.58
2019-03-10T18:53:16.135Z,100179.92
2019-03-10T18:55:46.108Z,100179.36
2019-03-10T18:58:15.997Z,100187.29
2019-03-10T19:00:46.187Z,100197.05
2019-03-10T19:03:16.152Z,100200.66
2019-03-10T19:05:46.058Z,100205.42
2019-03-10T19:08:16.161Z,100217.07
2019-03-10T19:10:46.076Z,100226.03
2019-03-10T19:13:15.817Z,100229.27
2019-03-10T19:15:45.957Z,100231.42
2019-03-10T19:18:15.801Z,100231.88
2019-03-10T19:20:45.662Z,100234.33
2019-03-10T19:23:15.655Z,100244.86
2019-03-10T19:25:45.472Z,100252.67
2019-03-10T19:28:15.536Z,100252.80
2019-03-10T19:30:45.420Z,100249.23
2019-03-10T19:33:15.499Z,100232.03
2019-03-10T19:35:45.475Z,100231.77
2019-03-10T19:38:15.463Z,100237.06
2019-03-10T19:40:45.390Z,100224.33
2019-03-10T19:43:15.420Z,100206.48
2019-03-10T19:45:45.400Z,100191.62
2019-03-10T19:48:15.259Z,100209.21
2019-03-10T19:50:45.270Z,100240.96
2019-03-10T19:53:15.183Z,100285.73
2019-03-10T19:55:45.201Z,100288.04
2019-03-10T19:58:15.252Z,100279.95
2019-03-10T20:00:45.150Z,100273.36
2019-03-10T20:03:15.025Z,100283.98
2019-03-10T20:05:45.041Z,100297.64
2019-03-10T20:08:15.152Z,100302.94
2019-03-10T20:10:45.082Z,100311.86
2019-03-10T20:13:15.416Z,100317.22
2019-03-10T20:15:45.119Z,100316.08
2019-03-10T20:18:15.000Z,100320.90
2019-03-10T20:20:45.113Z,100327.36
2019-03-10T20:23:15.099Z,100313.66
2019-03-10T20:25:45.203Z,100308.22
2019-03-10T20:28:15.289Z,100315.29
2019-03-10T20:30:45.119Z,100324.91
2019-03-10T20:33:14.993Z,100332.82
2019-03-10T20:35:44.845Z,100333.66
2019-03-10T20:38:14.837Z,100338.74
2019-03-10T20:40:45.058Z,100332.69
2019-03-10T20:43:15.153Z,100337.99
2019-03-10T20:45:45.097Z,100343.88
2019-03-10T20:48:15.019Z,100368.97
2019-03-10T20:50:44.902Z,100381.45
2019-03-10T20:53:14.836Z,100366.25
2019-03-10T20:55:45.997Z,100362.30
2019-03-10T20:58:15.795Z,100359.06
2019-03-10T21:00:45.776Z,100367.31
2019-03-10T21:03:16.098Z,100365.36
2019-03-10T21:05:46.243Z,100358.74
2019-03-10T21:08:16.055Z,100357.73
2019-03-10T21:10:46.076Z,100365.83
2019-03-10T21:13:15.926Z,100360.20
2019-03-10T21:15:45.905Z,100364.17
2019-03-10T21:18:15.838Z,100374.55
2019-03-10T21:20:45.688Z,100378.37
2019-03-10T21:23:15.461Z,100380.19
2019-03-10T21:25:45.475Z,100384.12
2019-03-10T21:28:15.481Z,100377.02
2019-03-10T21:30:45.418Z,100383.27
2019-03-10T21:33:15.311Z,100382.80
2019-03-10T21:35:47.072Z,100383.48
2019-03-10T21:38:16.862Z,100395.08
2019-03-10T21:40:46.750Z,100386.16
2019-03-10T21:43:16.530Z,100389.52
2019-03-10T21:45:46.245Z,100394.43
2019-03-10T21:48:16.023Z,100401.53
2019-03-10T21:50:45.883Z,100423.67
2019-03-10T21:53:15.623Z,100414.86
2019-03-10T21:55:45.415Z,100411.88
2019-03-10T21:58:15.022Z,100406.61
2019-03-10T22:00:44.774Z,100418.80
2019-03-10T22:03:14.511Z,100421.66
2019-03-10T22:05:44.205Z,100429.73
2019-03-10T22:08:13.613Z,100427.09
2019-03-10T22:10:43.114Z,100423.80
2019-03-10T22:13:12.658Z,100421.27
2019-03-10T22:15:42.280Z,100439.66
2019-03-10T22:18:11.780Z,100444.30
2019-03-10T22:20:41.265Z,100428.05
2019-03-10T22:23:10.784Z,100426.46
2019-03-10T22:25:40.296Z,100425.81
2019-03-10T22:28:09.812Z,100418.08
2019-03-10T22:30:39.392Z,100422.91
2019-03-10T22:33:08.979Z,100431.98
2019-03-10T22:35:38.550Z,100446.36
2019-03-10T22:38:08.089Z,100463.05
2019-03-10T22:40:37.636Z,100469.83
2019-03-10T22:43:07.650Z,100482.73
2019-03-10T22:45:37.246Z,100453.20
2019-03-10T22:48:06.818Z,100444.85
2019-03-10T22:50:36.518Z,100438.78
2019-03-10T22:53:05.928Z,100432.20
2019-03-10T22:55:35.479Z,100426.60
2019-03-10T22:58:05.030Z,100423.81
2019-03-10T23:00:49.023Z,100413.22
2019-03-10T23:03:18.406Z,100421.63
2019-03-10T23:05:47.810Z,100418.48
2019-03-10T23:08:17.288Z,100401.98
2019-03-10T23:10:46.845Z,100406.43
2019-03-10T23:13:16.258Z,100400.48
2019-03-10T23:15:45.802Z,100398.83
2019-03-10T23:18:15.288Z,100393.56
2019-03-10T23:20:44.755Z,100387.28
2019-03-10T23:23:14.298Z,100380.34
2019-03-10T23:25:43.803Z,100384.97
2019-03-10T23:28:13.341Z,100389.25
2019-03-10T23:30:42.850Z,100385.13
2019-03-10T23:33:12.847Z,100378.02
2019-03-10T23:35:42.400Z,100381.34
2019-03-10T23:38:11.867Z,100378.52
2019-03-10T23:40:41.368Z,100368.29
2019-03-10T23:43:10.799Z,100374.88
2019-03-10T23:45:40.314Z,100367.80
2019-03-10T23:48:09.838Z,100366.45
2019-03-10T23:50:39.226Z,100358.87
2019-03-10T23:53:08.753Z,100353.41
2019-03-10T23:55:38.259Z,100348.95
2019-03-10T23:58:07.858Z,100350.60
